createdAt,value
2022-11-26T00:01:52.160Z,12.40
2022-11-26T00:04:13.634Z,13.17
2022-11-26T00:06:37.516Z,13.73
2022-11-26T00:08:59.845Z,13.20
2022-11-26T00:11:21.383Z,12.57
2022-11-26T00:13:42.826Z,9.13
2022-11-26T00:16:04.706Z,12.43
2022-11-26T00:18:29.103Z,13.40
2022-11-26T00:20:54.354Z,11.67
2022-11-26T00:23:20.768Z,14.43
2022-11-26T00:25:49.777Z,13.73
2022-11-26T00:28:30.269Z,11.80
2022-11-26T00:30:52.344Z,10.47
2022-11-26T00:33:13.780Z,11.33
2022-11-26T00:35:35.209Z,12.87
2022-11-26T00:37:58.654Z,11.57
2022-11-26T00:40:24.025Z,11.70
2022-11-26T00:42:45.981Z,8.10
2022-11-26T00:45:16.074Z,13.83
2022-11-26T00:47:37.493Z,11.93
2022-11-26T00:49:58.890Z,10.80
2022-11-26T00:52:34.589Z,15.67
2022-11-26T00:54:56.158Z,11.57
2022-11-26T00:57:17.651Z,11.73
2022-11-26T00:59:39.079Z,9.83
2022-11-26T01:02:00.539Z,11.53
2022-11-26T01:04:22.014Z,9.97
2022-11-26T01:06:45.034Z,11.97
2022-11-26T01:09:13.345Z,14.57
2022-11-26T01:11:34.816Z,11.67
2022-11-26T01:13:56.654Z,13.97
2022-11-26T01:16:23.327Z,14.73
2022-11-26T01:18:45.188Z,14.20
2022-11-26T01:21:11.603Z,13.37
2022-11-26T01:23:33.052Z,10.43
2022-11-26T01:25:54.948Z,14.77
2022-11-26T01:28:18.734Z,12.57
2022-11-26T01:30:41.124Z,10.37
2022-11-26T01:33:02.625Z,15.43
2022-11-26T01:35:24.065Z,10.40
2022-11-26T01:37:45.775Z,10.77
2022-11-26T01:40:22.374Z,16.10
2022-11-26T01:42:50.064Z,13.60
2022-11-26T01:45:17.770Z,8.70
2022-11-26T01:47:39.225Z,14.23
2022-11-26T01:50:31.496Z,9.57
2022-11-26T01:52:53.763Z,12.53
2022-11-26T01:55:17.557Z,10.33
2022-11-26T01:57:39.274Z,9.63
2022-11-26T02:00:02.028Z,12.00
2022-11-26T02:02:26.606Z,11.97
2022-11-26T02:04:56.190Z,15.07
2022-11-26T02:07:17.687Z,8.20
2022-11-26T02:09:39.756Z,11.80
2022-11-26T02:12:01.492Z,13.00
2022-11-26T02:14:26.714Z,12.10
2022-11-26T02:17:03.359Z,10.40
2022-11-26T02:20:02.750Z,14.43
2022-11-26T02:22:33.333Z,11.40
2022-11-26T02:25:22.863Z,17.20
2022-11-26T02:28:07.003Z,9.73
2022-11-26T02:30:32.065Z,9.43
2022-11-26T02:33:09.047Z,12.30
2022-11-26T02:35:41.593Z,16.90
2022-11-26T02:38:07.362Z,14.37
2022-11-26T02:40:29.088Z,14.07
2022-11-26T02:42:50.589Z,15.73
2022-11-26T02:45:19.484Z,13.93
2022-11-26T02:47:44.725Z,17.90
2022-11-26T02:50:11.891Z,14.53
2022-11-26T02:52:35.258Z,14.60
2022-11-26T02:54:57.329Z,18.47
2022-11-26T02:57:22.052Z,14.63
2022-11-26T02:59:44.553Z,19.17
2022-11-26T03:02:20.397Z,14.87
2022-11-26T03:04:46.479Z,19.03
2022-11-26T03:07:09.938Z,17.63
2022-11-26T03:09:51.883Z,23.53
2022-11-26T03:12:13.384Z,15.57
2022-11-26T03:14:35.058Z,21.43
2022-11-26T03:16:56.651Z,14.93
2022-11-26T03:19:18.141Z,20.30
2022-11-26T03:21:39.549Z,21.97
2022-11-26T03:24:01.109Z,18.87
2022-11-26T03:26:22.669Z,22.33
2022-11-26T03:28:44.132Z,15.17
2022-11-26T03:31:05.722Z,21.87
2022-11-26T03:33:27.201Z,24.57
2022-11-26T03:35:49.702Z,16.63
2022-11-26T03:38:11.316Z,17.53
2022-11-26T03:40:32.822Z,19.10
2022-11-26T03:42:54.286Z,18.20
2022-11-26T03:45:15.864Z,18.43
2022-11-26T03:47:37.827Z,18.73
2022-11-26T03:49:59.313Z,21.20
2022-11-26T03:52:20.886Z,17.17
2022-11-26T03:54:42.383Z,19.67
2022-11-26T03:57:03.891Z,19.63
2022-11-26T03:59:25.386Z,14.27
2022-11-26T04:01:46.975Z,19.93
2022-11-26T04:04:08.581Z,16.60
2022-11-26T04:06:30.034Z,19.53
2022-11-26T04:08:52.350Z,19.63
2022-11-26T04:11:14.424Z,19.40
2022-11-26T04:13:35.929Z,17.37
2022-11-26T04:15:57.354Z,16.90
2022-11-26T04:18:18.872Z,19.10
2022-11-26T04:20:40.352Z,21.13
2022-11-26T04:23:01.810Z,23.63
2022-11-26T04:25:24.150Z,15.67
2022-11-26T04:27:45.610Z,17.33
2022-11-26T04:30:08.341Z,21.40
2022-11-26T04:32:29.819Z,23.90
2022-11-26T04:34:51.333Z,16.60
2022-11-26T04:37:12.941Z,19.53
2022-11-26T04:39:34.418Z,20.43
2022-11-26T04:41:55.851Z,16.43
2022-11-26T04:44:17.307Z,20.80
2022-11-26T04:46:38.813Z,17.80
2022-11-26T04:49:00.297Z,21.67
2022-11-26T04:51:21.814Z,21.73
2022-11-26T04:53:43.298Z,21.30
2022-11-26T04:56:04.916Z,22.30
2022-11-26T04:58:26.361Z,18.33
2022-11-26T05:00:50.931Z,17.87
2022-11-26T05:03:13.291Z,13.83
2022-11-26T05:05:34.878Z,18.57
2022-11-26T05:07:56.517Z,21.63
2022-11-26T05:10:18.273Z,20.10
2022-11-26T05:12:39.768Z,21.23
2022-11-26T05:15:01.252Z,14.93
2022-11-26T05:17:22.787Z,16.77
2022-11-26T05:19:44.350Z,17.93
2022-11-26T05:22:05.777Z,29.37
2022-11-26T05:24:27.463Z,27.63
2022-11-26T05:26:53.685Z,23.10
2022-11-26T05:29:18.043Z,20.53
2022-11-26T05:31:39.507Z,16.40
2022-11-26T05:34:01.047Z,21.90
2022-11-26T05:36:22.719Z,17.00
2022-11-26T05:38:44.195Z,15.73
2022-11-26T05:41:05.687Z,15.73
2022-11-26T05:43:27.146Z,19.27
2022-11-26T05:45:48.740Z,16.10
2022-11-26T05:48:10.302Z,17.97
2022-11-26T05:50:32.674Z,14.77
2022-11-26T05:52:54.129Z,19.90
2022-11-26T05:55:16.921Z,15.63
2022-11-26T05:57:38.756Z,18.47
2022-11-26T06:00:00.213Z,17.90
2022-11-26T06:02:21.828Z,21.63
2022-11-26T06:04:43.436Z,14.07
2022-11-26T06:07:04.868Z,18.13
2022-11-26T06:09:26.369Z,15.83
2022-11-26T06:11:50.392Z,16.50
2022-11-26T06:14:11.859Z,16.93
2022-11-26T06:16:33.368Z,19.63
2022-11-26T06:18:54.885Z,20.63
2022-11-26T06:21:16.469Z,23.17
2022-11-26T06:23:37.898Z,16.87
2022-11-26T06:25:59.526Z,15.97
2022-11-26T06:28:20.988Z,16.27
2022-11-26T06:30:44.745Z,18.37
2022-11-26T06:33:06.226Z,20.10
2022-11-26T06:35:27.717Z,15.80
2022-11-26T06:37:49.231Z,14.40
2022-11-26T06:40:16.801Z,16.43
2022-11-26T06:42:38.222Z,18.73
2022-11-26T06:45:00.232Z,13.17
2022-11-26T06:47:21.824Z,16.53
2022-11-26T06:49:43.345Z,15.37
2022-11-26T06:52:05.024Z,21.33
2022-11-26T06:54:26.519Z,25.57
2022-11-26T06:56:48.151Z,41.93
2022-11-26T06:59:09.843Z,43.63
2022-11-26T07:01:31.702Z,55.00
2022-11-26T07:03:54.225Z,50.20
2022-11-26T07:06:21.278Z,38.47
2022-11-26T07:08:42.769Z,46.70
2022-11-26T07:11:04.369Z,31.23
2022-11-26T07:13:25.828Z,25.13
2022-11-26T07:15:47.333Z,24.83
2022-11-26T07:18:08.837Z,29.20
2022-11-26T07:20:30.310Z,27.50
2022-11-26T07:22:53.151Z,28.17
2022-11-26T07:25:14.690Z,28.53
2022-11-26T07:27:36.135Z,28.77
2022-11-26T07:29:57.656Z,16.03
2022-11-26T07:32:20.336Z,15.27
2022-11-26T07:34:41.874Z,23.43
2022-11-26T07:37:03.419Z,37.40
2022-11-26T07:39:24.969Z,47.30
2022-11-26T07:41:46.416Z,53.20
2022-11-26T07:44:12.248Z,18.60
2022-11-26T07:46:33.794Z,18.90
2022-11-26T07:48:56.298Z,16.80
2022-11-26T07:51:29.822Z,17.47
2022-11-26T07:53:52.498Z,13.77
2022-11-26T07:56:14.100Z,9.70
2022-11-26T07:58:35.613Z,18.50
2022-11-26T08:00:57.043Z,24.13
2022-11-26T08:03:18.504Z,27.80
2022-11-26T08:05:43.936Z,20.97
2022-11-26T08:08:05.787Z,20.60
2022-11-26T08:10:27.303Z,15.83
2022-11-26T08:12:48.796Z,15.20
2022-11-26T08:15:10.748Z,10.13
2022-11-26T08:17:32.167Z,15.20
2022-11-26T08:19:53.743Z,13.87
2022-11-26T08:22:15.178Z,14.07
2022-11-26T08:24:36.848Z,12.53
2022-11-26T08:26:59.421Z,16.63
2022-11-26T08:29:20.886Z,13.93
2022-11-26T08:31:46.518Z,16.13
2022-11-26T08:34:08.342Z,19.77
2022-11-26T08:36:31.342Z,32.17
2022-11-26T08:38:52.867Z,45.73
2022-11-26T08:41:14.474Z,125.67
2022-11-26T08:44:04.575Z,39.17
2022-11-26T08:46:18.361Z,30.40
2022-11-26T08:48:40.170Z,27.93
2022-11-26T08:51:04.451Z,39.13
2022-11-26T08:53:27.148Z,45.47
2022-11-26T08:56:00.211Z,43.87
2022-11-26T08:58:22.128Z,23.77
2022-11-26T09:00:44.273Z,25.13
2022-11-26T09:03:05.861Z,23.53
2022-11-26T09:05:27.418Z,27.07
2022-11-26T09:07:49.298Z,15.37
2022-11-26T09:10:11.228Z,15.27
2022-11-26T09:12:32.658Z,14.43
2022-11-26T09:14:54.209Z,13.90
2022-11-26T09:17:15.810Z,16.13
2022-11-26T09:19:37.337Z,17.07
2022-11-26T09:21:59.787Z,16.83
2022-11-26T09:24:21.629Z,13.17
2022-11-26T09:26:43.957Z,17.53
2022-11-26T09:29:05.655Z,15.17
2022-11-26T09:31:27.663Z,17.53
2022-11-26T09:33:49.208Z,19.50
2022-11-26T09:36:13.011Z,14.50
2022-11-26T09:38:35.551Z,18.53
2022-11-26T09:41:05.663Z,14.97
2022-11-26T09:43:36.084Z,15.83
2022-11-26T09:46:00.829Z,13.37
2022-11-26T09:48:25.025Z,18.07
2022-11-26T09:50:49.803Z,17.60
2022-11-26T09:53:43.108Z,13.63
2022-11-26T09:56:10.057Z,17.80
2022-11-26T09:58:40.113Z,15.30
2022-11-26T10:01:05.368Z,17.27
2022-11-26T10:03:35.759Z,16.07
2022-11-26T10:06:34.306Z,15.73
2022-11-26T10:09:11.230Z,13.73
2022-11-26T10:11:49.113Z,13.20
2022-11-26T10:14:48.121Z,16.10
2022-11-26T10:17:18.828Z,14.33
2022-11-26T10:20:02.628Z,17.93
2022-11-26T10:23:11.038Z,16.17
2022-11-26T10:25:45.246Z,14.77
2022-11-26T10:28:21.620Z,19.60
2022-11-26T10:30:43.991Z,15.77
2022-11-26T10:33:07.256Z,17.17
2022-11-26T10:35:29.924Z,16.37
2022-11-26T10:37:52.256Z,14.20
2022-11-26T10:40:28.615Z,14.63
2022-11-26T10:43:12.601Z,21.80
2022-11-26T10:45:55.645Z,18.57
2022-11-26T10:48:33.459Z,13.77
2022-11-26T10:51:11.029Z,18.43
2022-11-26T10:53:52.464Z,17.27
2022-11-26T10:56:19.629Z,26.93
2022-11-26T10:58:43.573Z,14.43
2022-11-26T11:01:06.969Z,17.20
2022-11-26T11:04:06.845Z,17.83
2022-11-26T11:06:19.312Z,13.10
2022-11-26T11:08:40.813Z,10.50
2022-11-26T11:11:04.211Z,15.13
2022-11-26T11:13:43.277Z,9.47
2022-11-26T11:16:04.897Z,10.30
2022-11-26T11:18:26.837Z,15.43
2022-11-26T11:20:57.755Z,9.73
2022-11-26T11:23:21.018Z,17.20
2022-11-26T11:25:47.324Z,14.07
2022-11-26T11:28:21.474Z,9.23
2022-11-26T11:30:44.295Z,10.03
2022-11-26T11:33:20.220Z,11.80
2022-11-26T11:35:41.678Z,10.63
2022-11-26T11:38:03.539Z,17.83
2022-11-26T11:40:29.060Z,11.23
2022-11-26T11:42:56.491Z,14.30
2022-11-26T11:45:42.086Z,14.07
2022-11-26T11:48:12.635Z,14.50
2022-11-26T11:50:38.821Z,17.03
2022-11-26T11:53:18.475Z,18.33
2022-11-26T11:56:02.811Z,15.30
2022-11-26T11:58:38.194Z,15.03
2022-11-26T12:01:18.731Z,16.33
2022-11-26T12:03:43.113Z,17.67
2022-11-26T12:06:43.002Z,17.97
2022-11-26T12:09:29.425Z,18.33
2022-11-26T12:11:58.691Z,17.67
2022-11-26T12:14:32.346Z,16.60
2022-11-26T12:17:00.229Z,16.87
2022-11-26T12:19:54.709Z,14.90
2022-11-26T12:22:22.554Z,14.33
2022-11-26T12:24:52.895Z,11.20
2022-11-26T12:27:36.158Z,19.43
2022-11-26T12:30:03.258Z,15.53
2022-11-26T12:32:51.044Z,16.50
2022-11-26T12:35:20.754Z,14.87
2022-11-26T12:37:43.246Z,19.97
2022-11-26T12:40:08.500Z,16.13
2022-11-26T12:42:51.751Z,18.13
2022-11-26T12:45:33.007Z,13.47
2022-11-26T12:48:00.527Z,16.30
2022-11-26T12:50:38.254Z,13.37
2022-11-26T12:53:33.313Z,10.73
2022-11-26T12:56:03.937Z,12.33
2022-11-26T12:58:43.923Z,16.03
2022-11-26T13:01:05.552Z,11.67
2022-11-26T13:03:33.346Z,15.33
2022-11-26T13:06:29.206Z,13.40
2022-11-26T13:09:03.225Z,11.77
2022-11-26T13:11:50.258Z,14.37
2022-11-26T13:14:32.822Z,15.60
2022-11-26T13:17:02.050Z,18.63
2022-11-26T13:19:38.521Z,17.77
2022-11-26T13:22:22.015Z,17.90
2022-11-26T13:25:31.061Z,19.87
2022-11-26T13:27:59.508Z,18.17
2022-11-26T13:30:26.355Z,20.13
2022-11-26T13:33:12.595Z,16.27
2022-11-26T13:35:57.217Z,12.53
2022-11-26T13:38:41.723Z,12.97
2022-11-26T13:41:27.743Z,16.83
2022-11-26T13:43:55.384Z,13.10
2022-11-26T13:46:22.490Z,15.13
2022-11-26T13:49:06.426Z,12.30
2022-11-26T13:51:42.979Z,13.93
2022-11-26T13:54:11.328Z,13.20
2022-11-26T13:56:36.224Z,13.63
2022-11-26T13:59:08.587Z,14.00
2022-11-26T14:01:40.319Z,15.00
2022-11-26T14:04:03.607Z,18.63
2022-11-26T14:06:25.480Z,17.63
2022-11-26T14:08:52.655Z,16.83
2022-11-26T14:11:54.370Z,14.27
2022-11-26T14:14:25.189Z,16.73
2022-11-26T14:17:14.329Z,15.20
2022-11-26T14:19:41.583Z,13.33
2022-11-26T14:22:03.798Z,13.30
2022-11-26T14:24:48.359Z,11.83
2022-11-26T14:27:09.812Z,15.33
2022-11-26T14:29:31.405Z,18.40
2022-11-26T14:31:54.646Z,13.03
2022-11-26T14:34:38.771Z,15.47
2022-11-26T14:37:02.366Z,18.90
2022-11-26T14:39:25.091Z,14.60
2022-11-26T14:41:46.477Z,17.37
2022-11-26T14:44:13.205Z,12.77
2022-11-26T14:46:35.112Z,16.13
2022-11-26T14:48:59.880Z,28.03
2022-11-26T14:51:24.589Z,17.40
2022-11-26T14:53:48.743Z,18.50
2022-11-26T14:56:10.697Z,17.43
2022-11-26T14:58:56.351Z,18.40
2022-11-26T15:01:23.679Z,19.23
2022-11-26T15:04:39.283Z,14.80
2022-11-26T15:07:00.895Z,16.07
2022-11-26T15:09:25.617Z,20.57
2022-11-26T15:12:12.084Z,16.37
2022-11-26T15:14:42.052Z,17.20
2022-11-26T15:17:05.783Z,21.93
2022-11-26T15:19:31.790Z,15.73
2022-11-26T15:21:53.622Z,20.70
2022-11-26T15:24:15.996Z,15.13
2022-11-26T15:26:38.304Z,18.50
2022-11-26T15:28:59.883Z,16.93
2022-11-26T15:31:21.377Z,15.30
2022-11-26T15:33:44.051Z,16.63
2022-11-26T15:36:07.105Z,22.57
2022-11-26T15:38:31.407Z,14.03
2022-11-26T15:41:15.547Z,20.53
2022-11-26T15:43:45.167Z,19.60
2022-11-26T15:46:20.208Z,14.23
2022-11-26T15:48:52.110Z,17.80
2022-11-26T15:51:24.043Z,21.33
2022-11-26T15:53:48.431Z,19.70
2022-11-26T15:56:16.335Z,19.60
2022-11-26T15:58:40.920Z,16.03
2022-11-26T16:01:04.994Z,18.63
2022-11-26T16:03:34.878Z,16.73
2022-11-26T16:05:56.540Z,17.50
2022-11-26T16:08:27.483Z,14.83
2022-11-26T16:10:56.963Z,15.10
2022-11-26T16:13:20.525Z,14.40
2022-11-26T16:16:05.301Z,17.43
2022-11-26T16:18:36.853Z,18.13
2022-11-26T16:21:15.889Z,13.90
2022-11-26T16:23:37.443Z,23.70
2022-11-26T16:26:19.306Z,18.40
2022-11-26T16:28:41.021Z,15.47
2022-11-26T16:31:02.759Z,14.67
2022-11-26T16:33:27.544Z,11.33
2022-11-26T16:35:49.500Z,12.60
2022-11-26T16:38:22.753Z,19.47
2022-11-26T16:40:44.550Z,14.83
2022-11-26T16:43:06.501Z,17.07
2022-11-26T16:45:28.025Z,18.50
2022-11-26T16:47:52.325Z,18.80
2022-11-26T16:50:39.913Z,18.17
2022-11-26T16:53:01.359Z,18.13
2022-11-26T16:55:26.045Z,12.73
2022-11-26T16:57:51.215Z,17.37
2022-11-26T17:00:21.455Z,17.87
2022-11-26T17:02:43.020Z,21.83
2022-11-26T17:05:04.940Z,16.47
2022-11-26T17:07:37.902Z,19.57
2022-11-26T17:09:59.466Z,24.20
2022-11-26T17:12:23.270Z,29.23
2022-11-26T17:14:46.612Z,22.73
2022-11-26T17:17:12.565Z,25.73
2022-11-26T17:19:34.059Z,31.83
2022-11-26T17:21:55.488Z,32.80
2022-11-26T17:24:20.765Z,24.43
2022-11-26T17:26:44.529Z,26.37
2022-11-26T17:29:05.966Z,19.90
2022-11-26T17:31:27.638Z,20.20
2022-11-26T17:33:50.638Z,22.03
2022-11-26T17:36:20.548Z,18.60
2022-11-26T17:38:42.180Z,14.70
2022-11-26T17:41:03.605Z,18.23
2022-11-26T17:43:25.051Z,22.50
2022-11-26T17:45:46.547Z,22.80
2022-11-26T17:48:12.270Z,15.67
2022-11-26T17:50:36.133Z,23.53
2022-11-26T17:52:57.886Z,20.70
2022-11-26T17:55:20.094Z,23.00
2022-11-26T17:57:41.651Z,20.87
2022-11-26T18:00:04.861Z,24.40
2022-11-26T18:02:26.313Z,22.33
2022-11-26T18:04:47.813Z,18.70
2022-11-26T18:07:12.475Z,21.27
2022-11-26T18:09:34.847Z,18.73
2022-11-26T18:11:56.881Z,18.70
2022-11-26T18:14:19.002Z,15.17
2022-11-26T18:16:40.613Z,18.13
2022-11-26T18:19:02.115Z,17.90
2022-11-26T18:21:23.553Z,15.50
2022-11-26T18:23:48.087Z,18.17
2022-11-26T18:26:18.902Z,20.70
2022-11-26T18:28:40.331Z,21.77
2022-11-26T18:31:01.842Z,21.83
2022-11-26T18:33:23.319Z,26.63
2022-11-26T18:35:44.801Z,16.07
2022-11-26T18:38:09.521Z,23.40
2022-11-26T18:40:30.951Z,37.77
2022-11-26T18:42:52.762Z,33.30
2022-11-26T18:45:15.762Z,27.83
2022-11-26T18:47:37.727Z,21.07
2022-11-26T18:49:59.305Z,21.03
2022-11-26T18:52:20.800Z,16.73
2022-11-26T18:54:42.358Z,20.13
2022-11-26T18:57:03.811Z,19.70
2022-11-26T18:59:26.469Z,19.30
2022-11-26T19:01:48.036Z,19.13
2022-11-26T19:04:10.562Z,20.33
2022-11-26T19:06:33.513Z,17.90
2022-11-26T19:09:00.831Z,16.87
2022-11-26T19:11:24.553Z,22.23
2022-11-26T19:13:46.941Z,30.03
2022-11-26T19:16:16.096Z,18.63
2022-11-26T19:18:38.161Z,21.43
2022-11-26T19:20:59.629Z,19.07
2022-11-26T19:23:24.392Z,26.13
2022-11-26T19:25:45.848Z,23.47
2022-11-26T19:28:07.295Z,23.70
2022-11-26T19:30:28.845Z,21.30
2022-11-26T19:32:50.325Z,22.10
2022-11-26T19:35:13.872Z,22.03
2022-11-26T19:37:35.468Z,21.67
2022-11-26T19:39:56.900Z,17.57
2022-11-26T19:42:18.427Z,20.10
2022-11-26T19:44:48.065Z,23.87
2022-11-26T19:47:09.508Z,19.47
2022-11-26T19:49:30.988Z,19.63
2022-11-26T19:51:53.154Z,18.17
2022-11-26T19:54:14.684Z,19.37
2022-11-26T19:56:36.765Z,15.83
2022-11-26T19:58:59.084Z,19.33
2022-11-26T20:01:21.982Z,17.40
2022-11-26T20:03:44.414Z,16.93
2022-11-26T20:06:11.146Z,16.97
2022-11-26T20:08:33.988Z,18.13
2022-11-26T20:11:01.558Z,15.20
2022-11-26T20:13:23.140Z,15.87
2022-11-26T20:15:48.841Z,16.17
2022-11-26T20:18:10.331Z,24.23
2022-11-26T20:20:31.762Z,17.93
2022-11-26T20:22:53.218Z,18.27
2022-11-26T20:25:15.598Z,16.13
2022-11-26T20:27:37.023Z,23.63
2022-11-26T20:29:58.542Z,18.73
2022-11-26T20:32:21.950Z,21.00
2022-11-26T20:34:44.653Z,23.63
2022-11-26T20:37:06.071Z,21.80
2022-11-26T20:39:28.669Z,15.10
2022-11-26T20:41:50.634Z,16.90
2022-11-26T20:44:13.043Z,20.57
2022-11-26T20:46:34.612Z,19.67
2022-11-26T20:48:56.586Z,22.67
2022-11-26T20:51:19.390Z,21.77
2022-11-26T20:53:42.720Z,24.53
2022-11-26T20:56:05.486Z,17.93
2022-11-26T20:58:27.953Z,16.40
2022-11-26T21:00:49.572Z,18.80
2022-11-26T21:03:11.029Z,16.00
2022-11-26T21:05:33.609Z,16.23
2022-11-26T21:07:55.116Z,23.00
2022-11-26T21:10:16.675Z,21.67
2022-11-26T21:12:38.549Z,19.70
2022-11-26T21:15:01.308Z,27.87
2022-11-26T21:17:22.896Z,30.23
2022-11-26T21:19:44.472Z,21.17
2022-11-26T21:22:05.886Z,19.87
2022-11-26T21:24:27.398Z,23.43
2022-11-26T21:26:48.833Z,25.93
2022-11-26T21:29:10.273Z,29.03
2022-11-26T21:31:32.411Z,23.40
2022-11-26T21:33:56.313Z,25.67
2022-11-26T21:36:17.722Z,22.10
2022-11-26T21:38:40.758Z,16.37
2022-11-26T21:41:06.957Z,13.40
2022-11-26T21:43:28.383Z,17.97
2022-11-26T21:45:49.833Z,21.40
2022-11-26T21:48:11.332Z,27.13
2022-11-26T21:50:32.763Z,23.77
2022-11-26T21:52:54.247Z,21.23
2022-11-26T21:55:15.900Z,22.73
2022-11-26T21:57:37.313Z,18.83
2022-11-26T21:59:58.820Z,14.77
2022-11-26T22:02:20.333Z,15.43
2022-11-26T22:04:41.881Z,16.73
2022-11-26T22:07:03.851Z,13.60
2022-11-26T22:09:25.345Z,12.73
2022-11-26T22:11:46.874Z,13.87
2022-11-26T22:14:10.100Z,15.40
2022-11-26T22:16:31.727Z,15.67
2022-11-26T22:18:54.118Z,19.07
2022-11-26T22:21:25.070Z,15.30
2022-11-26T22:23:46.717Z,15.73
2022-11-26T22:26:08.672Z,19.83
2022-11-26T22:28:30.487Z,19.17
2022-11-26T22:30:52.080Z,16.93
2022-11-26T22:33:13.570Z,17.27
2022-11-26T22:35:35.926Z,11.10
2022-11-26T22:37:57.414Z,12.63
2022-11-26T22:40:18.906Z,13.97
2022-11-26T22:42:40.893Z,15.67
2022-11-26T22:45:02.998Z,16.43
2022-11-26T22:47:24.430Z,26.10
2022-11-26T22:49:45.906Z,23.47
2022-11-26T22:52:07.321Z,26.53
2022-11-26T22:54:28.763Z,31.33
2022-11-26T22:56:50.224Z,48.00
2022-11-26T22:59:13.578Z,93.27
2022-11-26T23:01:36.546Z,90.03
2022-11-26T23:03:59.483Z,82.03
2022-11-26T23:06:23.330Z,58.43
2022-11-26T23:08:45.725Z,67.77
2022-11-26T23:11:09.139Z,34.30
2022-11-26T23:13:30.594Z,22.20
2022-11-26T23:15:52.077Z,43.93
2022-11-26T23:18:15.655Z,61.27
2022-11-26T23:20:37.348Z,67.30
2022-11-26T23:22:58.801Z,117.13
2022-11-26T23:25:20.285Z,78.00
2022-11-26T23:27:41.761Z,33.67
2022-11-26T23:30:04.701Z,29.53
2022-11-26T23:32:32.133Z,16.53
2022-11-26T23:34:54.309Z,28.67
2022-11-26T23:37:15.758Z,29.97
2022-11-26T23:39:37.242Z,20.43
2022-11-26T23:41:58.740Z,39.53
2022-11-26T23:44:20.306Z,21.10
2022-11-26T23:46:41.797Z,42.40
2022-11-26T23:49:04.125Z,65.63
2022-11-26T23:51:28.411Z,40.30
2022-11-26T23:53:51.172Z,126.90
2022-11-26T23:56:15.931Z,170.53
2022-11-26T23:58:37.722Z,122.03
